sensor_id;sensor_type;location;lat;lon;timestamp;P1;durP1;ratioP1;P2;durP2;ratioP2
44145;SDS011;29809;52.432;4.780;2022-07-03T00:01:43;2.90;;;0.80;;
44145;SDS011;29809;52.432;4.780;2022-07-03T00:04:08;1.55;;;0.73;;
44145;SDS011;29809;52.432;4.780;2022-07-03T00:06:34;4.15;;;1.25;;
44145;SDS011;29809;52.432;4.780;2022-07-03T00:09:00;5.80;;;1.40;;
44145;SDS011;29809;52.432;4.780;2022-07-03T00:11:25;2.38;;;1.25;;
44145;SDS011;29809;52.432;4.780;2022-07-03T00:13:52;2.33;;;1.20;;
44145;SDS011;29809;52.432;4.780;2022-07-03T00:16:17;3.70;;;1.63;;
44145;SDS011;29809;52.432;4.780;2022-07-03T00:18:42;3.13;;;1.50;;
44145;SDS011;29809;52.432;4.780;2022-07-03T00:21:08;3.03;;;1.80;;
44145;SDS011;29809;52.432;4.780;2022-07-03T00:23:38;3.38;;;1.80;;
44145;SDS011;29809;52.432;4.780;2022-07-03T00:26:04;2.53;;;1.83;;
44145;SDS011;29809;52.432;4.780;2022-07-03T00:28:30;3.38;;;2.08;;
44145;SDS011;29809;52.432;4.780;2022-07-03T00:30:56;2.95;;;1.92;;
44145;SDS011;29809;52.432;4.780;2022-07-03T00:33:22;3.65;;;2.00;;
44145;SDS011;29809;52.432;4.780;2022-07-03T00:35:49;1.63;;;1.52;;
44145;SDS011;29809;52.432;4.780;2022-07-03T00:38:16;2.90;;;1.30;;
44145;SDS011;29809;52.432;4.780;2022-07-03T00:40:42;1.88;;;1.60;;
44145;SDS011;29809;52.432;4.780;2022-07-03T00:43:08;2.45;;;1.60;;
44145;SDS011;29809;52.432;4.780;2022-07-03T00:45:34;2.42;;;1.45;;
44145;SDS011;29809;52.432;4.780;2022-07-03T00:47:59;2.63;;;1.48;;
44145;SDS011;29809;52.432;4.780;2022-07-03T00:50:26;3.35;;;1.35;;
44145;SDS011;29809;52.432;4.780;2022-07-03T00:52:54;3.15;;;1.50;;
44145;SDS011;29809;52.432;4.780;2022-07-03T00:55:19;2.47;;;1.20;;
44145;SDS011;29809;52.432;4.780;2022-07-03T00:57:47;2.17;;;1.70;;
44145;SDS011;29809;52.432;4.780;2022-07-03T01:00:13;2.90;;;1.27;;
44145;SDS011;29809;52.432;4.780;2022-07-03T01:05:26;2.88;;;1.13;;
44145;SDS011;29809;52.432;4.780;2022-07-03T01:10:37;1.75;;;1.27;;
44145;SDS011;29809;52.432;4.780;2022-07-03T01:13:18;2.25;;;1.25;;
44145;SDS011;29809;52.432;4.780;2022-07-03T01:16:07;2.88;;;1.20;;
44145;SDS011;29809;52.432;4.780;2022-07-03T01:18:40;2.25;;;0.82;;
44145;SDS011;29809;52.432;4.780;2022-07-03T01:21:07;2.88;;;1.10;;
44145;SDS011;29809;52.432;4.780;2022-07-03T01:26:07;1.80;;;1.20;;
44145;SDS011;29809;52.432;4.780;2022-07-03T01:28:33;4.45;;;1.27;;
44145;SDS011;29809;52.432;4.780;2022-07-03T01:31:01;2.50;;;1.30;;
44145;SDS011;29809;52.432;4.780;2022-07-03T01:33:30;3.50;;;1.40;;
44145;SDS011;29809;52.432;4.780;2022-07-03T01:36:02;2.40;;;1.20;;
44145;SDS011;29809;52.432;4.780;2022-07-03T01:38:31;2.90;;;1.15;;
44145;SDS011;29809;52.432;4.780;2022-07-03T01:40:57;2.22;;;1.33;;
44145;SDS011;29809;52.432;4.780;2022-07-03T01:43:25;5.55;;;1.00;;
44145;SDS011;29809;52.432;4.780;2022-07-03T01:45:52;2.63;;;1.30;;
44145;SDS011;29809;52.432;4.780;2022-07-03T01:48:18;1.67;;;1.15;;
44145;SDS011;29809;52.432;4.780;2022-07-03T01:50:44;2.90;;;1.17;;
44145;SDS011;29809;52.432;4.780;2022-07-03T01:53:11;3.50;;;1.35;;
44145;SDS011;29809;52.432;4.780;2022-07-03T01:55:38;1.20;;;1.00;;
44145;SDS011;29809;52.432;4.780;2022-07-03T01:58:04;2.88;;;1.05;;
44145;SDS011;29809;52.432;4.780;2022-07-03T02:00:31;1.50;;;1.15;;
44145;SDS011;29809;52.432;4.780;2022-07-03T02:03:03;2.05;;;1.00;;
44145;SDS011;29809;52.432;4.780;2022-07-03T02:05:30;2.92;;;1.02;;
44145;SDS011;29809;52.432;4.780;2022-07-03T02:08:00;3.83;;;1.15;;
44145;SDS011;29809;52.432;4.780;2022-07-03T02:10:33;2.72;;;1.00;;
44145;SDS011;29809;52.432;4.780;2022-07-03T02:13:05;1.55;;;1.00;;
44145;SDS011;29809;52.432;4.780;2022-07-03T02:15:32;2.53;;;1.10;;
44145;SDS011;29809;52.432;4.780;2022-07-03T02:18:00;1.95;;;1.20;;
44145;SDS011;29809;52.432;4.780;2022-07-03T02:20:25;0.88;;;0.82;;
44145;SDS011;29809;52.432;4.780;2022-07-03T02:22:59;2.35;;;1.10;;
44145;SDS011;29809;52.432;4.780;2022-07-03T02:25:33;3.13;;;1.13;;
44145;SDS011;29809;52.432;4.780;2022-07-03T02:30:36;1.77;;;0.82;;
44145;SDS011;29809;52.432;4.780;2022-07-03T02:33:06;3.47;;;1.30;;
44145;SDS011;29809;52.432;4.780;2022-07-03T02:35:34;3.22;;;1.20;;
44145;SDS011;29809;52.432;4.780;2022-07-03T02:40:42;2.35;;;1.20;;
44145;SDS011;29809;52.432;4.780;2022-07-03T02:45:38;2.58;;;1.20;;
44145;SDS011;29809;52.432;4.780;2022-07-03T02:48:47;2.85;;;1.25;;
44145;SDS011;29809;52.432;4.780;2022-07-03T02:50:54;2.20;;;1.30;;
44145;SDS011;29809;52.432;4.780;2022-07-03T02:53:24;2.33;;;1.60;;
44145;SDS011;29809;52.432;4.780;2022-07-03T02:55:51;3.10;;;1.30;;
44145;SDS011;29809;52.432;4.780;2022-07-03T02:58:41;2.25;;;1.33;;
44145;SDS011;29809;52.432;4.780;2022-07-03T03:03:37;3.45;;;1.08;;
44145;SDS011;29809;52.432;4.780;2022-07-03T03:06:03;2.55;;;1.10;;
44145;SDS011;29809;52.432;4.780;2022-07-03T03:08:42;2.58;;;1.50;;
44145;SDS011;29809;52.432;4.780;2022-07-03T03:11:08;3.90;;;1.10;;
44145;SDS011;29809;52.432;4.780;2022-07-03T03:13:34;2.03;;;1.23;;
44145;SDS011;29809;52.432;4.780;2022-07-03T03:16:07;2.65;;;0.98;;
44145;SDS011;29809;52.432;4.780;2022-07-03T03:18:34;3.33;;;1.30;;
44145;SDS011;29809;52.432;4.780;2022-07-03T03:21:00;3.63;;;1.25;;
44145;SDS011;29809;52.432;4.780;2022-07-03T03:25:56;2.25;;;0.93;;
44145;SDS011;29809;52.432;4.780;2022-07-03T03:28:23;2.90;;;1.30;;
44145;SDS011;29809;52.432;4.780;2022-07-03T03:30:49;2.85;;;1.20;;
44145;SDS011;29809;52.432;4.780;2022-07-03T03:33:14;3.38;;;1.35;;
44145;SDS011;29809;52.432;4.780;2022-07-03T03:35:41;4.03;;;1.38;;
44145;SDS011;29809;52.432;4.780;2022-07-03T03:38:06;3.25;;;1.30;;
44145;SDS011;29809;52.432;4.780;2022-07-03T03:40:32;3.20;;;1.10;;
44145;SDS011;29809;52.432;4.780;2022-07-03T03:42:57;4.88;;;1.80;;
44145;SDS011;29809;52.432;4.780;2022-07-03T03:45:22;2.90;;;1.58;;
44145;SDS011;29809;52.432;4.780;2022-07-03T03:47:48;1.88;;;1.25;;
44145;SDS011;29809;52.432;4.780;2022-07-03T03:50:13;4.45;;;1.02;;
44145;SDS011;29809;52.432;4.780;2022-07-03T03:52:38;2.95;;;1.13;;
44145;SDS011;29809;52.432;4.780;2022-07-03T03:55:04;6.63;;;1.48;;
44145;SDS011;29809;52.432;4.780;2022-07-03T03:57:29;3.45;;;1.42;;
44145;SDS011;29809;52.432;4.780;2022-07-03T03:59:54;2.28;;;1.10;;
44145;SDS011;29809;52.432;4.780;2022-07-03T04:02:20;4.00;;;1.50;;
44145;SDS011;29809;52.432;4.780;2022-07-03T04:04:45;5.55;;;1.50;;
44145;SDS011;29809;52.432;4.780;2022-07-03T04:07:11;4.70;;;1.02;;
44145;SDS011;29809;52.432;4.780;2022-07-03T04:09:36;4.75;;;1.40;;
44145;SDS011;29809;52.432;4.780;2022-07-03T04:12:02;2.78;;;1.40;;
44145;SDS011;29809;52.432;4.780;2022-07-03T04:14:27;1.98;;;1.45;;
44145;SDS011;29809;52.432;4.780;2022-07-03T04:16:52;4.65;;;1.60;;
44145;SDS011;29809;52.432;4.780;2022-07-03T04:19:18;4.50;;;1.50;;
44145;SDS011;29809;52.432;4.780;2022-07-03T04:21:43;3.25;;;1.55;;
44145;SDS011;29809;52.432;4.780;2022-07-03T04:24:08;5.97;;;1.48;;
44145;SDS011;29809;52.432;4.780;2022-07-03T04:26:33;4.47;;;1.38;;
44145;SDS011;29809;52.432;4.780;2022-07-03T04:28:59;2.72;;;0.95;;
44145;SDS011;29809;52.432;4.780;2022-07-03T04:31:24;3.90;;;1.63;;
44145;SDS011;29809;52.432;4.780;2022-07-03T04:33:49;5.07;;;1.35;;
44145;SDS011;29809;52.432;4.780;2022-07-03T04:36:15;3.97;;;1.35;;
44145;SDS011;29809;52.432;4.780;2022-07-03T04:38:41;2.38;;;1.27;;
44145;SDS011;29809;52.432;4.780;2022-07-03T04:41:06;3.97;;;1.30;;
44145;SDS011;29809;52.432;4.780;2022-07-03T04:43:31;5.10;;;1.40;;
44145;SDS011;29809;52.432;4.780;2022-07-03T04:45:56;5.32;;;1.50;;
44145;SDS011;29809;52.432;4.780;2022-07-03T04:48:22;5.38;;;1.23;;
44145;SDS011;29809;52.432;4.780;2022-07-03T04:50:47;3.70;;;1.40;;
44145;SDS011;29809;52.432;4.780;2022-07-03T04:53:12;5.55;;;1.27;;
44145;SDS011;29809;52.432;4.780;2022-07-03T04:55:37;5.60;;;1.98;;
44145;SDS011;29809;52.432;4.780;2022-07-03T04:58:03;4.20;;;1.52;;
44145;SDS011;29809;52.432;4.780;2022-07-03T05:00:28;5.75;;;1.98;;
44145;SDS011;29809;52.432;4.780;2022-07-03T05:02:54;4.43;;;1.50;;
44145;SDS011;29809;52.432;4.780;2022-07-03T05:05:19;4.70;;;1.50;;
44145;SDS011;29809;52.432;4.780;2022-07-03T05:07:44;4.15;;;1.50;;
44145;SDS011;29809;52.432;4.780;2022-07-03T05:10:09;5.43;;;1.60;;
44145;SDS011;29809;52.432;4.780;2022-07-03T05:12:35;4.72;;;1.45;;
44145;SDS011;29809;52.432;4.780;2022-07-03T05:15:00;3.97;;;1.25;;
44145;SDS011;29809;52.432;4.780;2022-07-03T05:17:25;6.25;;;2.00;;
44145;SDS011;29809;52.432;4.780;2022-07-03T05:19:50;3.92;;;1.50;;
44145;SDS011;29809;52.432;4.780;2022-07-03T05:22:38;6.32;;;1.70;;
44145;SDS011;29809;52.432;4.780;2022-07-03T05:25:04;7.03;;;1.45;;
44145;SDS011;29809;52.432;4.780;2022-07-03T05:27:29;6.28;;;1.77;;
44145;SDS011;29809;52.432;4.780;2022-07-03T05:29:54;6.32;;;1.80;;
44145;SDS011;29809;52.432;4.780;2022-07-03T05:32:20;6.90;;;1.85;;
44145;SDS011;29809;52.432;4.780;2022-07-03T05:34:45;18.15;;;2.78;;
44145;SDS011;29809;52.432;4.780;2022-07-03T05:37:10;9.45;;;1.50;;
44145;SDS011;29809;52.432;4.780;2022-07-03T05:39:35;9.15;;;2.28;;
44145;SDS011;29809;52.432;4.780;2022-07-03T05:42:03;3.88;;;1.70;;
44145;SDS011;29809;52.432;4.780;2022-07-03T05:44:28;4.15;;;1.60;;
44145;SDS011;29809;52.432;4.780;2022-07-03T05:46:54;5.82;;;2.08;;
44145;SDS011;29809;52.432;4.780;2022-07-03T05:49:19;6.60;;;1.92;;
44145;SDS011;29809;52.432;4.780;2022-07-03T05:51:44;4.35;;;1.85;;
44145;SDS011;29809;52.432;4.780;2022-07-03T05:54:09;8.25;;;1.92;;
44145;SDS011;29809;52.432;4.780;2022-07-03T05:56:35;7.07;;;1.55;;
44145;SDS011;29809;52.432;4.780;2022-07-03T05:59:00;6.03;;;1.42;;
44145;SDS011;29809;52.432;4.780;2022-07-03T06:01:25;6.53;;;1.80;;
44145;SDS011;29809;52.432;4.780;2022-07-03T06:03:50;9.13;;;1.92;;
44145;SDS011;29809;52.432;4.780;2022-07-03T06:06:16;7.05;;;1.95;;
44145;SDS011;29809;52.432;4.780;2022-07-03T06:08:41;4.95;;;1.73;;
44145;SDS011;29809;52.432;4.780;2022-07-03T06:11:06;4.95;;;1.73;;
44145;SDS011;29809;52.432;4.780;2022-07-03T06:13:31;5.57;;;1.67;;
44145;SDS011;29809;52.432;4.780;2022-07-03T06:15:57;6.13;;;1.77;;
44145;SDS011;29809;52.432;4.780;2022-07-03T06:18:22;7.40;;;1.85;;
44145;SDS011;29809;52.432;4.780;2022-07-03T06:20:47;7.35;;;1.88;;
44145;SDS011;29809;52.432;4.780;2022-07-03T06:23:12;6.90;;;2.60;;
44145;SDS011;29809;52.432;4.780;2022-07-03T06:25:38;3.33;;;1.40;;
44145;SDS011;29809;52.432;4.780;2022-07-03T06:28:03;4.25;;;1.70;;
44145;SDS011;29809;52.432;4.780;2022-07-03T06:30:28;6.00;;;1.75;;
44145;SDS011;29809;52.432;4.780;2022-07-03T06:32:53;4.68;;;1.33;;
44145;SDS011;29809;52.432;4.780;2022-07-03T06:35:19;6.68;;;1.90;;
44145;SDS011;29809;52.432;4.780;2022-07-03T06:37:44;4.50;;;1.52;;
44145;SDS011;29809;52.432;4.780;2022-07-03T06:40:09;5.60;;;1.77;;
44145;SDS011;29809;52.432;4.780;2022-07-03T06:42:35;6.13;;;1.70;;
44145;SDS011;29809;52.432;4.780;2022-07-03T06:45:00;5.60;;;1.92;;
44145;SDS011;29809;52.432;4.780;2022-07-03T06:47:25;7.10;;;1.98;;
44145;SDS011;29809;52.432;4.780;2022-07-03T06:49:50;6.85;;;1.90;;
44145;SDS011;29809;52.432;4.780;2022-07-03T06:52:16;4.90;;;1.90;;
44145;SDS011;29809;52.432;4.780;2022-07-03T06:54:41;3.80;;;1.60;;
44145;SDS011;29809;52.432;4.780;2022-07-03T06:57:09;3.35;;;1.77;;
44145;SDS011;29809;52.432;4.780;2022-07-03T06:59:34;6.32;;;1.50;;
44145;SDS011;29809;52.432;4.780;2022-07-03T07:01:59;5.55;;;2.00;;
44145;SDS011;29809;52.432;4.780;2022-07-03T07:04:24;5.07;;;1.77;;
44145;SDS011;29809;52.432;4.780;2022-07-03T07:06:50;8.57;;;2.00;;
44145;SDS011;29809;52.432;4.780;2022-07-03T07:09:15;3.92;;;1.38;;
44145;SDS011;29809;52.432;4.780;2022-07-03T07:11:40;3.70;;;1.30;;
44145;SDS011;29809;52.432;4.780;2022-07-03T07:14:05;3.80;;;1.25;;
44145;SDS011;29809;52.432;4.780;2022-07-03T07:16:31;34.92;;;8.55;;
44145;SDS011;29809;52.432;4.780;2022-07-03T07:18:56;34.28;;;9.95;;
44145;SDS011;29809;52.432;4.780;2022-07-03T07:21:21;29.40;;;9.57;;
44145;SDS011;29809;52.432;4.780;2022-07-03T07:23:46;19.45;;;5.53;;
44145;SDS011;29809;52.432;4.780;2022-07-03T07:26:11;17.75;;;4.78;;
44145;SDS011;29809;52.432;4.780;2022-07-03T07:28:37;15.40;;;3.55;;
44145;SDS011;29809;52.432;4.780;2022-07-03T07:31:02;12.65;;;2.40;;
44145;SDS011;29809;52.432;4.780;2022-07-03T07:33:28;5.60;;;1.80;;
44145;SDS011;29809;52.432;4.780;2022-07-03T07:35:53;3.92;;;1.30;;
44145;SDS011;29809;52.432;4.780;2022-07-03T07:38:18;5.75;;;1.67;;
44145;SDS011;29809;52.432;4.780;2022-07-03T07:40:44;5.97;;;1.50;;
44145;SDS011;29809;52.432;4.780;2022-07-03T07:43:09;5.35;;;1.60;;
44145;SDS011;29809;52.432;4.780;2022-07-03T07:45:34;5.57;;;1.40;;
44145;SDS011;29809;52.432;4.780;2022-07-03T07:47:59;6.20;;;1.70;;
44145;SDS011;29809;52.432;4.780;2022-07-03T07:50:25;3.05;;;1.40;;
44145;SDS011;29809;52.432;4.780;2022-07-03T07:52:50;3.13;;;1.17;;
44145;SDS011;29809;52.432;4.780;2022-07-03T07:55:15;3.40;;;1.48;;
44145;SDS011;29809;52.432;4.780;2022-07-03T07:57:41;3.58;;;1.25;;
44145;SDS011;29809;52.432;4.780;2022-07-03T08:00:14;5.07;;;1.58;;
44145;SDS011;29809;52.432;4.780;2022-07-03T08:02:39;4.40;;;1.35;;
44145;SDS011;29809;52.432;4.780;2022-07-03T08:05:24;3.78;;;1.10;;
44145;SDS011;29809;52.432;4.780;2022-07-03T08:08:10;3.80;;;1.20;;
44145;SDS011;29809;52.432;4.780;2022-07-03T08:10:37;4.82;;;1.92;;
44145;SDS011;29809;52.432;4.780;2022-07-03T08:13:03;2.72;;;1.40;;
44145;SDS011;29809;52.432;4.780;2022-07-03T08:15:28;5.60;;;1.33;;
44145;SDS011;29809;52.432;4.780;2022-07-03T08:17:53;5.28;;;1.63;;
44145;SDS011;29809;52.432;4.780;2022-07-03T08:20:19;2.20;;;1.05;;
44145;SDS011;29809;52.432;4.780;2022-07-03T08:22:44;3.28;;;1.20;;
44145;SDS011;29809;52.432;4.780;2022-07-03T08:25:09;4.43;;;1.30;;
44145;SDS011;29809;52.432;4.780;2022-07-03T08:27:34;5.03;;;1.30;;
44145;SDS011;29809;52.432;4.780;2022-07-03T08:30:00;5.65;;;1.50;;
44145;SDS011;29809;52.432;4.780;2022-07-03T08:32:25;4.47;;;1.33;;
44145;SDS011;29809;52.432;4.780;2022-07-03T08:34:50;3.38;;;1.10;;
44145;SDS011;29809;52.432;4.780;2022-07-03T08:37:15;2.05;;;1.00;;
44145;SDS011;29809;52.432;4.780;2022-07-03T08:39:41;3.38;;;1.40;;
44145;SDS011;29809;52.432;4.780;2022-07-03T08:42:06;6.00;;;0.90;;
44145;SDS011;29809;52.432;4.780;2022-07-03T08:44:32;3.00;;;0.90;;
44145;SDS011;29809;52.432;4.780;2022-07-03T08:47:00;3.90;;;1.10;;
44145;SDS011;29809;52.432;4.780;2022-07-03T08:49:27;7.25;;;1.00;;
44145;SDS011;29809;52.432;4.780;2022-07-03T08:51:53;4.90;;;0.95;;
44145;SDS011;29809;52.432;4.780;2022-07-03T08:54:19;1.92;;;1.40;;
44145;SDS011;29809;52.432;4.780;2022-07-03T08:56:45;3.75;;;1.00;;
44145;SDS011;29809;52.432;4.780;2022-07-03T08:59:10;1.83;;;1.10;;
44145;SDS011;29809;52.432;4.780;2022-07-03T09:01:37;4.65;;;1.08;;
44145;SDS011;29809;52.432;4.780;2022-07-03T09:04:07;2.38;;;0.93;;
44145;SDS011;29809;52.432;4.780;2022-07-03T09:06:33;4.22;;;1.63;;
44145;SDS011;29809;52.432;4.780;2022-07-03T09:09:00;2.03;;;1.10;;
44145;SDS011;29809;52.432;4.780;2022-07-03T09:11:26;3.65;;;1.30;;
44145;SDS011;29809;52.432;4.780;2022-07-03T09:13:51;2.67;;;1.05;;
44145;SDS011;29809;52.432;4.780;2022-07-03T09:16:16;1.70;;;1.00;;
44145;SDS011;29809;52.432;4.780;2022-07-03T09:18:43;4.10;;;1.17;;
44145;SDS011;29809;52.432;4.780;2022-07-03T09:21:08;4.78;;;0.90;;
44145;SDS011;29809;52.432;4.780;2022-07-03T09:23:38;1.55;;;0.90;;
44145;SDS011;29809;52.432;4.780;2022-07-03T09:26:04;3.53;;;1.15;;
44145;SDS011;29809;52.432;4.780;2022-07-03T09:28:48;1.60;;;0.70;;
44145;SDS011;29809;52.432;4.780;2022-07-03T09:31:16;2.58;;;0.85;;
44145;SDS011;29809;52.432;4.780;2022-07-03T09:33:53;2.92;;;1.00;;
44145;SDS011;29809;52.432;4.780;2022-07-03T09:36:18;1.85;;;0.95;;
44145;SDS011;29809;52.432;4.780;2022-07-03T09:38:45;3.17;;;0.80;;
44145;SDS011;29809;52.432;4.780;2022-07-03T09:41:11;2.00;;;0.70;;
44145;SDS011;29809;52.432;4.780;2022-07-03T09:43:36;2.25;;;0.88;;
44145;SDS011;29809;52.432;4.780;2022-07-03T09:46:05;2.65;;;0.57;;
44145;SDS011;29809;52.432;4.780;2022-07-03T09:53:47;1.75;;;0.70;;
44145;SDS011;29809;52.432;4.780;2022-07-03T09:56:12;2.78;;;0.70;;
44145;SDS011;29809;52.432;4.780;2022-07-03T09:58:38;1.20;;;0.55;;
44145;SDS011;29809;52.432;4.780;2022-07-03T10:01:19;1.85;;;0.73;;
44145;SDS011;29809;52.432;4.780;2022-07-03T10:03:46;2.08;;;0.60;;
44145;SDS011;29809;52.432;4.780;2022-07-03T10:06:12;1.30;;;0.60;;
44145;SDS011;29809;52.432;4.780;2022-07-03T10:08:37;1.60;;;0.70;;
44145;SDS011;29809;52.432;4.780;2022-07-03T10:11:04;1.63;;;0.60;;
44145;SDS011;29809;52.432;4.780;2022-07-03T10:13:29;1.20;;;0.70;;
44145;SDS011;29809;52.432;4.780;2022-07-03T10:15:55;1.45;;;0.68;;
44145;SDS011;29809;52.432;4.780;2022-07-03T10:18:22;1.73;;;0.85;;
44145;SDS011;29809;52.432;4.780;2022-07-03T10:20:49;1.65;;;0.65;;
44145;SDS011;29809;52.432;4.780;2022-07-03T10:23:15;0.55;;;0.50;;
44145;SDS011;29809;52.432;4.780;2022-07-03T10:25:42;1.45;;;0.52;;
44145;SDS011;29809;52.432;4.780;2022-07-03T10:28:07;0.75;;;0.30;;
44145;SDS011;29809;52.432;4.780;2022-07-03T10:30:33;2.80;;;0.70;;
44145;SDS011;29809;52.432;4.780;2022-07-03T10:32:59;1.27;;;0.50;;
44145;SDS011;29809;52.432;4.780;2022-07-03T10:35:25;1.55;;;0.80;;
44145;SDS011;29809;52.432;4.780;2022-07-03T10:40:25;1.50;;;0.80;;
44145;SDS011;29809;52.432;4.780;2022-07-03T10:43:13;2.85;;;0.52;;
44145;SDS011;29809;52.432;4.780;2022-07-03T10:46:08;2.97;;;1.00;;
44145;SDS011;29809;52.432;4.780;2022-07-03T10:48:53;2.10;;;0.90;;
44145;SDS011;29809;52.432;4.780;2022-07-03T10:51:21;3.30;;;1.65;;
44145;SDS011;29809;52.432;4.780;2022-07-03T10:53:46;6.10;;;1.67;;
44145;SDS011;29809;52.432;4.780;2022-07-03T10:56:12;2.85;;;2.10;;
44145;SDS011;29809;52.432;4.780;2022-07-03T10:58:56;2.90;;;2.08;;
44145;SDS011;29809;52.432;4.780;2022-07-03T11:01:31;3.28;;;2.28;;
44145;SDS011;29809;52.432;4.780;2022-07-03T11:03:58;4.80;;;2.88;;
44145;SDS011;29809;52.432;4.780;2022-07-03T11:09:08;4.03;;;1.45;;
44145;SDS011;29809;52.432;4.780;2022-07-03T11:11:39;3.05;;;1.80;;
44145;SDS011;29809;52.432;4.780;2022-07-03T11:14:21;1.75;;;1.25;;
44145;SDS011;29809;52.432;4.780;2022-07-03T11:16:46;2.35;;;1.65;;
44145;SDS011;29809;52.432;4.780;2022-07-03T11:19:11;2.55;;;1.40;;
44145;SDS011;29809;52.432;4.780;2022-07-03T11:21:37;1.83;;;1.00;;
44145;SDS011;29809;52.432;4.780;2022-07-03T11:24:09;1.65;;;1.17;;
44145;SDS011;29809;52.432;4.780;2022-07-03T11:26:37;1.58;;;1.10;;
44145;SDS011;29809;52.432;4.780;2022-07-03T11:29:03;1.75;;;0.98;;
44145;SDS011;29809;52.432;4.780;2022-07-03T11:31:28;1.08;;;0.68;;
44145;SDS011;29809;52.432;4.780;2022-07-03T11:39:02;1.33;;;0.77;;
44145;SDS011;29809;52.432;4.780;2022-07-03T11:41:41;3.10;;;0.75;;
44145;SDS011;29809;52.432;4.780;2022-07-03T11:44:07;2.58;;;0.63;;
44145;SDS011;29809;52.432;4.780;2022-07-03T11:46:34;1.42;;;0.60;;
44145;SDS011;29809;52.432;4.780;2022-07-03T11:49:08;2.75;;;0.80;;
44145;SDS011;29809;52.432;4.780;2022-07-03T11:51:34;1.30;;;0.77;;
44145;SDS011;29809;52.432;4.780;2022-07-03T11:54:00;2.55;;;0.68;;
44145;SDS011;29809;52.432;4.780;2022-07-03T11:56:25;2.50;;;0.60;;
44145;SDS011;29809;52.432;4.780;2022-07-03T11:58:52;1.10;;;0.70;;
44145;SDS011;29809;52.432;4.780;2022-07-03T12:03:50;1.77;;;0.63;;
44145;SDS011;29809;52.432;4.780;2022-07-03T12:06:15;2.63;;;0.73;;
44145;SDS011;29809;52.432;4.780;2022-07-03T12:08:41;1.83;;;0.50;;
44145;SDS011;29809;52.432;4.780;2022-07-03T12:11:11;0.90;;;0.52;;
44145;SDS011;29809;52.432;4.780;2022-07-03T12:13:37;1.23;;;0.88;;
44145;SDS011;29809;52.432;4.780;2022-07-03T12:16:12;1.65;;;0.50;;
44145;SDS011;29809;52.432;4.780;2022-07-03T12:18:50;1.33;;;0.60;;
44145;SDS011;29809;52.432;4.780;2022-07-03T12:21:16;1.20;;;0.60;;
44145;SDS011;29809;52.432;4.780;2022-07-03T12:23:42;1.10;;;0.50;;
44145;SDS011;29809;52.432;4.780;2022-07-03T12:26:08;2.05;;;0.70;;
44145;SDS011;29809;52.432;4.780;2022-07-03T12:28:33;0.88;;;0.45;;
44145;SDS011;29809;52.432;4.780;2022-07-03T12:30:58;3.30;;;0.73;;
44145;SDS011;29809;52.432;4.780;2022-07-03T12:33:24;0.50;;;0.50;;
44145;SDS011;29809;52.432;4.780;2022-07-03T12:36:05;1.05;;;0.60;;
44145;SDS011;29809;52.432;4.780;2022-07-03T12:38:31;0.77;;;0.50;;
44145;SDS011;29809;52.432;4.780;2022-07-03T12:41:05;1.27;;;0.50;;
44145;SDS011;29809;52.432;4.780;2022-07-03T12:43:39;1.30;;;0.60;;
44145;SDS011;29809;52.432;4.780;2022-07-03T12:46:24;3.10;;;1.00;;
44145;SDS011;29809;52.432;4.780;2022-07-03T12:48:52;2.50;;;0.60;;
44145;SDS011;29809;52.432;4.780;2022-07-03T12:54:09;2.30;;;0.70;;
44145;SDS011;29809;52.432;4.780;2022-07-03T12:56:34;2.22;;;0.57;;
44145;SDS011;29809;52.432;4.780;2022-07-03T12:59:00;2.00;;;0.70;;
44145;SDS011;29809;52.432;4.780;2022-07-03T13:01:58;2.22;;;0.68;;
44145;SDS011;29809;52.432;4.780;2022-07-03T13:04:31;2.33;;;0.82;;
44145;SDS011;29809;52.432;4.780;2022-07-03T13:07:04;3.33;;;0.90;;
44145;SDS011;29809;52.432;4.780;2022-07-03T13:09:30;1.23;;;0.45;;
44145;SDS011;29809;52.432;4.780;2022-07-03T13:11:55;3.63;;;0.80;;
44145;SDS011;29809;52.432;4.780;2022-07-03T13:14:20;1.20;;;0.60;;
44145;SDS011;29809;52.432;4.780;2022-07-03T13:16:46;0.82;;;0.57;;
44145;SDS011;29809;52.432;4.780;2022-07-03T13:19:13;2.05;;;0.73;;
44145;SDS011;29809;52.432;4.780;2022-07-03T13:21:39;2.15;;;0.68;;
44145;SDS011;29809;52.432;4.780;2022-07-03T13:24:05;1.95;;;0.90;;
44145;SDS011;29809;52.432;4.780;2022-07-03T13:26:30;1.80;;;0.70;;
44145;SDS011;29809;52.432;4.780;2022-07-03T13:28:56;1.73;;;0.65;;
44145;SDS011;29809;52.432;4.780;2022-07-03T13:31:21;1.13;;;0.60;;
44145;SDS011;29809;52.432;4.780;2022-07-03T13:33:46;3.47;;;0.73;;
44145;SDS011;29809;52.432;4.780;2022-07-03T13:36:12;2.28;;;1.00;;
44145;SDS011;29809;52.432;4.780;2022-07-03T13:38:37;1.95;;;1.02;;
44145;SDS011;29809;52.432;4.780;2022-07-03T13:41:02;1.90;;;0.90;;
44145;SDS011;29809;52.432;4.780;2022-07-03T13:43:27;3.50;;;0.65;;
44145;SDS011;29809;52.432;4.780;2022-07-03T13:45:53;1.48;;;0.93;;
44145;SDS011;29809;52.432;4.780;2022-07-03T13:48:18;2.17;;;0.70;;
44145;SDS011;29809;52.432;4.780;2022-07-03T13:50:43;1.85;;;0.80;;
44145;SDS011;29809;52.432;4.780;2022-07-03T13:53:08;1.23;;;0.60;;
44145;SDS011;29809;52.432;4.780;2022-07-03T13:55:34;1.80;;;0.75;;
44145;SDS011;29809;52.432;4.780;2022-07-03T13:57:59;2.80;;;0.88;;
44145;SDS011;29809;52.432;4.780;2022-07-03T14:00:29;5.72;;;1.33;;
44145;SDS011;29809;52.432;4.780;2022-07-03T14:02:54;2.05;;;0.80;;
44145;SDS011;29809;52.432;4.780;2022-07-03T14:05:19;1.23;;;0.50;;
44145;SDS011;29809;52.432;4.780;2022-07-03T14:07:44;2.00;;;0.75;;
44145;SDS011;29809;52.432;4.780;2022-07-03T14:10:10;1.67;;;0.70;;
44145;SDS011;29809;52.432;4.780;2022-07-03T14:12:35;2.42;;;0.60;;
44145;SDS011;29809;52.432;4.780;2022-07-03T14:15:00;1.73;;;0.82;;
44145;SDS011;29809;52.432;4.780;2022-07-03T14:17:27;1.45;;;0.90;;
44145;SDS011;29809;52.432;4.780;2022-07-03T14:19:52;2.72;;;0.80;;
44145;SDS011;29809;52.432;4.780;2022-07-03T14:22:18;3.28;;;1.25;;
44145;SDS011;29809;52.432;4.780;2022-07-03T14:24:43;2.17;;;0.82;;
44145;SDS011;29809;52.432;4.780;2022-07-03T14:27:08;1.00;;;0.60;;
44145;SDS011;29809;52.432;4.780;2022-07-03T14:29:52;1.85;;;0.85;;
44145;SDS011;29809;52.432;4.780;2022-07-03T14:32:37;1.60;;;0.93;;
44145;SDS011;29809;52.432;4.780;2022-07-03T14:35:03;1.10;;;0.80;;
44145;SDS011;29809;52.432;4.780;2022-07-03T14:37:29;3.85;;;1.55;;
44145;SDS011;29809;52.432;4.780;2022-07-03T14:39:54;1.25;;;0.95;;
44145;SDS011;29809;52.432;4.780;2022-07-03T14:42:20;4.55;;;0.90;;
44145;SDS011;29809;52.432;4.780;2022-07-03T14:44:45;1.23;;;0.80;;
44145;SDS011;29809;52.432;4.780;2022-07-03T14:47:10;3.80;;;1.02;;
44145;SDS011;29809;52.432;4.780;2022-07-03T14:49:35;1.95;;;1.10;;
44145;SDS011;29809;52.432;4.780;2022-07-03T14:52:01;3.65;;;1.20;;
44145;SDS011;29809;52.432;4.780;2022-07-03T14:54:27;1.77;;;0.90;;
44145;SDS011;29809;52.432;4.780;2022-07-03T14:56:53;2.40;;;1.02;;
44145;SDS011;29809;52.432;4.780;2022-07-03T14:59:19;2.83;;;1.10;;
44145;SDS011;29809;52.432;4.780;2022-07-03T15:01:46;3.75;;;1.60;;
44145;SDS011;29809;52.432;4.780;2022-07-03T15:04:19;4.47;;;1.60;;
44145;SDS011;29809;52.432;4.780;2022-07-03T15:06:45;2.03;;;1.00;;
44145;SDS011;29809;52.432;4.780;2022-07-03T15:09:11;2.75;;;1.30;;
44145;SDS011;29809;52.432;4.780;2022-07-03T15:11:45;2.25;;;1.13;;
44145;SDS011;29809;52.432;4.780;2022-07-03T15:14:31;1.73;;;1.00;;
44145;SDS011;29809;52.432;4.780;2022-07-03T15:16:57;3.25;;;1.58;;
44145;SDS011;29809;52.432;4.780;2022-07-03T15:19:23;2.50;;;0.98;;
44145;SDS011;29809;52.432;4.780;2022-07-03T15:21:48;2.35;;;1.00;;
44145;SDS011;29809;52.432;4.780;2022-07-03T15:24:13;3.70;;;1.50;;
44145;SDS011;29809;52.432;4.780;2022-07-03T15:26:40;1.30;;;0.90;;
44145;SDS011;29809;52.432;4.780;2022-07-03T15:29:06;1.83;;;1.10;;
44145;SDS011;29809;52.432;4.780;2022-07-03T15:31:34;3.33;;;1.10;;